Midway, Pennsylvania
Current Conditions -  °F | °C
As of 5:51 AM on Wednesday 26 Nov 2014 (Local Time) from KPIT Reporting Station
Overcast Overcast  
Wind Chill: 25°   Ceiling: 13000
Heat Index: 31°   Visibility: 10mi
Dew Point: 25°   Wind: 6mph
Humidity: 79%   Direction: 20°NNE
Pressure: 30.06"   Gusts: NA
Location:  40.37°N, 80.3°W
Report Text: KPIT 261051Z 02005KT 10SM BKN130 OVC180 M01/M04 A3006 RMK AO2 SLP198 T10061039
Loading
Personal Weather Stations






























Interactive Weather Map New forecast layout! Learn more

10-Day Weather Forecast

Advertisements
Track Severe Weather on mobile